sensor_id;sensor_type;location;lat;lon;timestamp;pressure;altitude;pressure_sealevel;temperature;humidity
64908;BME280;51412;52.236;5.188;2022-07-10T00:01:20;102766.50;;;17.79;63.85
64908;BME280;51412;52.236;5.188;2022-07-10T00:03:47;102764.22;;;17.81;64.54
64908;BME280;51412;52.236;5.188;2022-07-10T00:06:16;102756.88;;;17.78;64.45
64908;BME280;51412;52.236;5.188;2022-07-10T00:08:42;102754.19;;;17.78;64.40
64908;BME280;51412;52.236;5.188;2022-07-10T00:11:09;102750.78;;;17.81;63.38
64908;BME280;51412;52.236;5.188;2022-07-10T00:13:36;102758.84;;;17.81;64.30
64908;BME280;51412;52.236;5.188;2022-07-10T00:16:03;102751.59;;;17.85;64.96
64908;BME280;51412;52.236;5.188;2022-07-10T00:18:30;102749.69;;;17.85;63.55
64908;BME280;51412;52.236;5.188;2022-07-10T00:20:56;102746.22;;;17.85;63.78
64908;BME280;51412;52.236;5.188;2022-07-10T00:23:24;102743.94;;;17.87;63.52
64908;BME280;51412;52.236;5.188;2022-07-10T00:25:51;102748.19;;;17.88;63.49
64908;BME280;51412;52.236;5.188;2022-07-10T00:28:17;102741.38;;;17.94;65.25
64908;BME280;51412;52.236;5.188;2022-07-10T00:30:44;102748.38;;;18.03;64.86
64908;BME280;51412;52.236;5.188;2022-07-10T00:33:10;102743.72;;;17.99;64.56
64908;BME280;51412;52.236;5.188;2022-07-10T00:35:37;102743.75;;;18.03;64.90
64908;BME280;51412;52.236;5.188;2022-07-10T00:38:03;102753.34;;;18.00;65.29
64908;BME280;51412;52.236;5.188;2022-07-10T00:40:31;102748.78;;;18.05;65.38
64908;BME280;51412;52.236;5.188;2022-07-10T00:42:58;102752.66;;;18.07;65.40
64908;BME280;51412;52.236;5.188;2022-07-10T00:45:24;102755.78;;;18.13;66.26
64908;BME280;51412;52.236;5.188;2022-07-10T00:47:51;102748.13;;;18.15;64.51
64908;BME280;51412;52.236;5.188;2022-07-10T00:50:17;102750.06;;;18.14;64.37
64908;BME280;51412;52.236;5.188;2022-07-10T00:52:45;102744.19;;;18.09;63.55
64908;BME280;51412;52.236;5.188;2022-07-10T00:55:13;102743.38;;;18.05;63.26
64908;BME280;51412;52.236;5.188;2022-07-10T00:57:41;102743.38;;;18.05;63.93
64908;BME280;51412;52.236;5.188;2022-07-10T01:00:08;102741.03;;;17.99;63.97
64908;BME280;51412;52.236;5.188;2022-07-10T01:02:37;102739.38;;;17.91;63.89
64908;BME280;51412;52.236;5.188;2022-07-10T01:05:07;102743.22;;;17.90;65.24
64908;BME280;51412;52.236;5.188;2022-07-10T01:07:34;102736.28;;;17.89;63.52
64908;BME280;51412;52.236;5.188;2022-07-10T01:10:02;102732.34;;;17.83;64.47
64908;BME280;51412;52.236;5.188;2022-07-10T01:12:30;102737.72;;;17.83;65.17
64908;BME280;51412;52.236;5.188;2022-07-10T01:14:59;102733.16;;;17.87;65.53
64908;BME280;51412;52.236;5.188;2022-07-10T01:17:26;102721.66;;;17.87;63.86
64908;BME280;51412;52.236;5.188;2022-07-10T01:19:54;102724.72;;;17.85;64.38
64908;BME280;51412;52.236;5.188;2022-07-10T01:22:21;102728.53;;;17.84;63.27
64908;BME280;51412;52.236;5.188;2022-07-10T01:24:48;102710.81;;;17.79;63.08
64908;BME280;51412;52.236;5.188;2022-07-10T01:27:14;102713.41;;;17.72;63.90
64908;BME280;51412;52.236;5.188;2022-07-10T01:29:42;102708.81;;;17.73;63.42
64908;BME280;51412;52.236;5.188;2022-07-10T01:32:09;102708.00;;;17.68;64.33
64908;BME280;51412;52.236;5.188;2022-07-10T01:34:35;102711.81;;;17.67;65.04
64908;BME280;51412;52.236;5.188;2022-07-10T01:37:02;102705.63;;;17.63;65.17
64908;BME280;51412;52.236;5.188;2022-07-10T01:39:30;102714.44;;;17.60;66.53
64908;BME280;51412;52.236;5.188;2022-07-10T01:41:56;102712.13;;;17.62;66.26
64908;BME280;51412;52.236;5.188;2022-07-10T01:44:23;102705.19;;;17.61;65.00
64908;BME280;51412;52.236;5.188;2022-07-10T01:46:49;102708.31;;;17.63;66.56
64908;BME280;51412;52.236;5.188;2022-07-10T01:49:16;102703.75;;;17.67;66.47
64908;BME280;51412;52.236;5.188;2022-07-10T01:51:42;102706.06;;;17.69;66.02
64908;BME280;51412;52.236;5.188;2022-07-10T01:54:09;102709.56;;;17.73;67.01
64908;BME280;51412;52.236;5.188;2022-07-10T01:56:37;102703.47;;;17.76;66.49
64908;BME280;51412;52.236;5.188;2022-07-10T01:59:04;102693.88;;;17.75;67.19
64908;BME280;51412;52.236;5.188;2022-07-10T02:01:31;102696.91;;;17.74;66.22
64908;BME280;51412;52.236;5.188;2022-07-10T02:03:57;102698.38;;;17.67;67.12
64908;BME280;51412;52.236;5.188;2022-07-10T02:06:42;102700.19;;;17.60;67.91
64908;BME280;51412;52.236;5.188;2022-07-10T02:09:08;102687.88;;;17.59;66.81
64908;BME280;51412;52.236;5.188;2022-07-10T02:11:36;102692.50;;;17.58;67.71
64908;BME280;51412;52.236;5.188;2022-07-10T02:14:03;102693.25;;;17.55;66.70
64908;BME280;51412;52.236;5.188;2022-07-10T02:16:29;102689.72;;;17.51;67.27
64908;BME280;51412;52.236;5.188;2022-07-10T02:18:56;102687.44;;;17.53;68.57
64908;BME280;51412;52.236;5.188;2022-07-10T02:21:22;102691.25;;;17.52;67.11
64908;BME280;51412;52.236;5.188;2022-07-10T02:23:48;102681.66;;;17.51;66.58
64908;BME280;51412;52.236;5.188;2022-07-10T02:26:15;102680.50;;;17.52;67.71
64908;BME280;51412;52.236;5.188;2022-07-10T02:28:43;102684.34;;;17.51;67.64
64908;BME280;51412;52.236;5.188;2022-07-10T02:31:09;102679.28;;;17.46;67.99
64908;BME280;51412;52.236;5.188;2022-07-10T02:33:36;102681.63;;;17.47;68.53
64908;BME280;51412;52.236;5.188;2022-07-10T02:36:02;102680.84;;;17.47;67.51
64908;BME280;51412;52.236;5.188;2022-07-10T02:38:29;102681.16;;;17.42;67.41
64908;BME280;51412;52.236;5.188;2022-07-10T02:40:55;102671.03;;;17.31;67.52
64908;BME280;51412;52.236;5.188;2022-07-10T02:43:22;102691.50;;;17.40;69.32
64908;BME280;51412;52.236;5.188;2022-07-10T02:45:50;102682.66;;;17.39;68.67
64908;BME280;51412;52.236;5.188;2022-07-10T02:48:16;102686.91;;;17.40;67.49
64908;BME280;51412;52.236;5.188;2022-07-10T02:50:43;102684.97;;;17.41;67.61
64908;BME280;51412;52.236;5.188;2022-07-10T02:53:09;102678.47;;;17.42;68.77
64908;BME280;51412;52.236;5.188;2022-07-10T02:55:36;102680.38;;;17.41;67.54
64908;BME280;51412;52.236;5.188;2022-07-10T02:58:03;102684.59;;;17.39;68.58
64908;BME280;51412;52.236;5.188;2022-07-10T03:00:29;102684.59;;;17.39;68.76
64908;BME280;51412;52.236;5.188;2022-07-10T03:02:57;102689.53;;;17.37;67.88
64908;BME280;51412;52.236;5.188;2022-07-10T03:05:24;102684.09;;;17.29;67.23
64908;BME280;51412;52.236;5.188;2022-07-10T03:07:50;102682.09;;;17.26;66.95
64908;BME280;51412;52.236;5.188;2022-07-10T03:10:17;102679.41;;;17.26;67.27
64908;BME280;51412;52.236;5.188;2022-07-10T03:12:43;102677.53;;;17.27;68.51
64908;BME280;51412;52.236;5.188;2022-07-10T03:15:11;102678.72;;;17.29;67.79
64908;BME280;51412;52.236;5.188;2022-07-10T03:17:37;102677.53;;;17.30;68.69
64908;BME280;51412;52.236;5.188;2022-07-10T03:20:07;102673.72;;;17.31;67.84
64908;BME280;51412;52.236;5.188;2022-07-10T03:22:34;102667.97;;;17.29;67.46
64908;BME280;51412;52.236;5.188;2022-07-10T03:25:00;102683.28;;;17.29;68.53
64908;BME280;51412;52.236;5.188;2022-07-10T03:27:27;102673.72;;;17.31;69.44
64908;BME280;51412;52.236;5.188;2022-07-10T03:29:53;102672.59;;;17.32;69.82
64908;BME280;51412;52.236;5.188;2022-07-10T03:32:20;102669.97;;;17.36;69.89
64908;BME280;51412;52.236;5.188;2022-07-10T03:34:46;102669.16;;;17.36;69.48
64908;BME280;51412;52.236;5.188;2022-07-10T03:37:14;102664.53;;;17.32;67.78
64908;BME280;51412;52.236;5.188;2022-07-10T03:39:41;102671.03;;;17.31;67.85
64908;BME280;51412;52.236;5.188;2022-07-10T03:42:07;102683.34;;;17.32;68.83
64908;BME280;51412;52.236;5.188;2022-07-10T03:44:33;102677.97;;;17.32;67.31
64908;BME280;51412;52.236;5.188;2022-07-10T03:47:00;102674.84;;;17.30;67.33
64908;BME280;51412;52.236;5.188;2022-07-10T03:49:27;102658.75;;;17.30;66.93
64908;BME280;51412;52.236;5.188;2022-07-10T03:51:54;102662.97;;;17.31;66.90
64908;BME280;51412;52.236;5.188;2022-07-10T03:54:22;102651.50;;;17.34;66.74
64908;BME280;51412;52.236;5.188;2022-07-10T03:56:48;102654.22;;;17.38;67.45
64908;BME280;51412;52.236;5.188;2022-07-10T03:59:32;102648.91;;;17.42;67.57
64908;BME280;51412;52.236;5.188;2022-07-10T04:01:59;102653.59;;;17.48;66.89
64908;BME280;51412;52.236;5.188;2022-07-10T04:04:25;102660.53;;;17.49;66.10
64908;BME280;51412;52.236;5.188;2022-07-10T04:06:53;102653.53;;;17.45;65.95
64908;BME280;51412;52.236;5.188;2022-07-10T04:09:19;102657.38;;;17.44;67.95
64908;BME280;51412;52.236;5.188;2022-07-10T04:11:47;102657.41;;;17.47;67.15
64908;BME280;51412;52.236;5.188;2022-07-10T04:14:13;102657.50;;;17.55;68.40
64908;BME280;51412;52.236;5.188;2022-07-10T04:16:40;102646.06;;;17.61;67.74
64908;BME280;51412;52.236;5.188;2022-07-10T04:19:07;102647.25;;;17.64;67.54
64908;BME280;51412;52.236;5.188;2022-07-10T04:21:33;102644.97;;;17.66;67.89
64908;BME280;51412;52.236;5.188;2022-07-10T04:24:00;102650.75;;;17.68;67.11
64908;BME280;51412;52.236;5.188;2022-07-10T04:26:26;102656.22;;;17.75;68.27
64908;BME280;51412;52.236;5.188;2022-07-10T04:28:54;102648.16;;;17.79;68.59
64908;BME280;51412;52.236;5.188;2022-07-10T04:31:21;102643.94;;;17.78;67.66
64908;BME280;51412;52.236;5.188;2022-07-10T04:33:47;102649.41;;;17.85;68.74
64908;BME280;51412;52.236;5.188;2022-07-10T04:36:14;102647.16;;;17.91;68.52
64908;BME280;51412;52.236;5.188;2022-07-10T04:38:41;102650.59;;;17.91;68.01
64908;BME280;51412;52.236;5.188;2022-07-10T04:41:07;102646.81;;;17.92;67.53
64908;BME280;51412;52.236;5.188;2022-07-10T04:43:34;102645.66;;;17.93;68.54
64908;BME280;51412;52.236;5.188;2022-07-10T04:46:02;102660.31;;;17.99;67.09
64908;BME280;51412;52.236;5.188;2022-07-10T04:48:28;102653.41;;;18.02;67.95
64908;BME280;51412;52.236;5.188;2022-07-10T04:50:55;102646.88;;;17.99;67.96
64908;BME280;51412;52.236;5.188;2022-07-10T04:53:21;102650.28;;;17.96;68.07
64908;BME280;51412;52.236;5.188;2022-07-10T04:55:48;102650.97;;;17.90;68.26
64908;BME280;51412;52.236;5.188;2022-07-10T04:58:14;102646.38;;;17.90;67.52
64908;BME280;51412;52.236;5.188;2022-07-10T05:00:41;102652.59;;;17.94;68.15
64908;BME280;51412;52.236;5.188;2022-07-10T05:03:08;102654.94;;;17.99;68.21
64908;BME280;51412;52.236;5.188;2022-07-10T05:05:35;102658.78;;;17.98;67.74
64908;BME280;51412;52.236;5.188;2022-07-10T05:08:02;102659.97;;;18.01;67.35
64908;BME280;51412;52.236;5.188;2022-07-10T05:10:28;102662.34;;;18.10;67.20
64908;BME280;51412;52.236;5.188;2022-07-10T05:12:55;102663.97;;;18.18;66.97
64908;BME280;51412;52.236;5.188;2022-07-10T05:15:22;102672.31;;;18.47;68.76
64908;BME280;51412;52.236;5.188;2022-07-10T05:17:48;102667.16;;;18.83;68.12
64908;BME280;51412;52.236;5.188;2022-07-10T05:20:16;102663.53;;;19.16;66.06
64908;BME280;51412;52.236;5.188;2022-07-10T05:22:43;102657.88;;;19.43;64.87
64908;BME280;51412;52.236;5.188;2022-07-10T05:25:09;102663.00;;;19.70;63.58
64908;BME280;51412;52.236;5.188;2022-07-10T05:27:36;102661.47;;;19.80;62.71
64908;BME280;51412;52.236;5.188;2022-07-10T05:30:03;102664.59;;;19.85;61.51
64908;BME280;51412;52.236;5.188;2022-07-10T05:32:30;102668.78;;;19.79;61.23
64908;BME280;51412;52.236;5.188;2022-07-10T05:34:57;102669.53;;;19.69;61.27
64908;BME280;51412;52.236;5.188;2022-07-10T05:37:25;102666.81;;;19.58;61.42
64908;BME280;51412;52.236;5.188;2022-07-10T05:39:51;102665.59;;;19.45;61.70
64908;BME280;51412;52.236;5.188;2022-07-10T05:42:18;102660.53;;;19.36;62.10
64908;BME280;51412;52.236;5.188;2022-07-10T05:44:44;102658.97;;;19.24;62.58
64908;BME280;51412;52.236;5.188;2022-07-10T05:47:10;102652.75;;;19.16;62.62
64908;BME280;51412;52.236;5.188;2022-07-10T05:49:37;102665.81;;;19.11;62.95
64908;BME280;51412;52.236;5.188;2022-07-10T05:52:05;102659.66;;;19.10;63.13
64908;BME280;51412;52.236;5.188;2022-07-10T05:54:33;102659.22;;;19.05;63.07
64908;BME280;51412;52.236;5.188;2022-07-10T05:56:59;102664.63;;;19.05;63.33
64908;BME280;51412;52.236;5.188;2022-07-10T05:59:26;102659.59;;;18.96;63.36
64908;BME280;51412;52.236;5.188;2022-07-10T06:01:52;102666.09;;;18.91;63.72
64908;BME280;51412;52.236;5.188;2022-07-10T06:04:19;102667.97;;;18.87;63.54
64908;BME280;51412;52.236;5.188;2022-07-10T06:06:45;102659.06;;;18.83;63.98
64908;BME280;51412;52.236;5.188;2022-07-10T06:09:12;102668.69;;;18.80;64.51
64908;BME280;51412;52.236;5.188;2022-07-10T06:11:40;102671.75;;;18.79;64.32
64908;BME280;51412;52.236;5.188;2022-07-10T06:14:09;102662.16;;;18.81;64.17
64908;BME280;51412;52.236;5.188;2022-07-10T06:16:36;102669.06;;;18.79;64.29
64908;BME280;51412;52.236;5.188;2022-07-10T06:19:02;102665.59;;;18.78;64.33
64908;BME280;51412;52.236;5.188;2022-07-10T06:21:29;102666.75;;;18.77;64.51
64908;BME280;51412;52.236;5.188;2022-07-10T06:23:55;102665.59;;;18.78;64.65
64908;BME280;51412;52.236;5.188;2022-07-10T06:26:22;102662.53;;;18.80;64.61
64908;BME280;51412;52.236;5.188;2022-07-10T06:28:50;102669.84;;;18.83;64.39
64908;BME280;51412;52.236;5.188;2022-07-10T06:31:16;102676.78;;;18.84;64.36
64908;BME280;51412;52.236;5.188;2022-07-10T06:33:43;102671.78;;;18.86;64.28
64908;BME280;51412;52.236;5.188;2022-07-10T06:36:09;102669.53;;;18.88;64.98
64908;BME280;51412;52.236;5.188;2022-07-10T06:38:37;102674.97;;;18.92;65.27
64908;BME280;51412;52.236;5.188;2022-07-10T06:41:04;102678.44;;;18.99;67.74
64908;BME280;51412;52.236;5.188;2022-07-10T06:43:31;102669.19;;;18.97;67.78
64908;BME280;51412;52.236;5.188;2022-07-10T06:45:59;102676.50;;;18.96;66.94
64908;BME280;51412;52.236;5.188;2022-07-10T06:48:26;102668.53;;;19.11;70.03
64908;BME280;51412;52.236;5.188;2022-07-10T06:50:53;102672.06;;;19.29;68.22
64908;BME280;51412;52.236;5.188;2022-07-10T06:53:20;102672.84;;;19.33;65.86
64908;BME280;51412;52.236;5.188;2022-07-10T06:55:49;102665.88;;;19.25;64.50
64908;BME280;51412;52.236;5.188;2022-07-10T06:58:16;102677.84;;;19.24;64.49
64908;BME280;51412;52.236;5.188;2022-07-10T07:00:43;102674.69;;;19.18;64.27
64908;BME280;51412;52.236;5.188;2022-07-10T07:03:11;102674.31;;;19.16;64.20
64908;BME280;51412;52.236;5.188;2022-07-10T07:05:38;102671.25;;;19.18;64.30
64908;BME280;51412;52.236;5.188;2022-07-10T07:08:05;102666.63;;;19.15;64.02
64908;BME280;51412;52.236;5.188;2022-07-10T07:10:31;102672.78;;;19.19;63.75
64908;BME280;51412;52.236;5.188;2022-07-10T07:12:58;102675.50;;;19.19;63.66
64908;BME280;51412;52.236;5.188;2022-07-10T07:15:25;102667.41;;;19.19;63.71
64908;BME280;51412;52.236;5.188;2022-07-10T07:17:51;102672.00;;;19.18;63.93
64908;BME280;51412;52.236;5.188;2022-07-10T07:20:34;102671.66;;;19.20;63.80
64908;BME280;51412;52.236;5.188;2022-07-10T07:23:19;102670.88;;;19.19;64.31
64908;BME280;51412;52.236;5.188;2022-07-10T07:25:46;102673.56;;;19.19;63.92
64908;BME280;51412;52.236;5.188;2022-07-10T07:28:13;102668.97;;;19.20;64.06
64908;BME280;51412;52.236;5.188;2022-07-10T07:30:41;102665.88;;;19.25;65.18
64908;BME280;51412;52.236;5.188;2022-07-10T07:33:08;102673.63;;;19.30;65.33
64908;BME280;51412;52.236;5.188;2022-07-10T07:35:36;102670.97;;;19.38;64.91
64908;BME280;51412;52.236;5.188;2022-07-10T07:38:03;102671.00;;;19.45;64.50
64908;BME280;51412;52.236;5.188;2022-07-10T07:40:31;102670.63;;;19.50;64.72
64908;BME280;51412;52.236;5.188;2022-07-10T07:42:58;102665.63;;;19.56;64.81
64908;BME280;51412;52.236;5.188;2022-07-10T07:45:26;102671.44;;;19.61;64.46
64908;BME280;51412;52.236;5.188;2022-07-10T07:47:54;102676.84;;;19.65;64.19
64908;BME280;51412;52.236;5.188;2022-07-10T07:50:22;102675.66;;;19.66;63.73
64908;BME280;51412;52.236;5.188;2022-07-10T07:52:52;102679.53;;;19.68;64.28
64908;BME280;51412;52.236;5.188;2022-07-10T07:55:20;102675.31;;;19.71;63.80
64908;BME280;51412;52.236;5.188;2022-07-10T07:57:47;102683.78;;;19.77;63.83
64908;BME280;51412;52.236;5.188;2022-07-10T08:00:17;102683.06;;;19.80;63.50
64908;BME280;51412;52.236;5.188;2022-07-10T08:02:43;102685.41;;;19.85;65.70
64908;BME280;51412;52.236;5.188;2022-07-10T08:05:10;102678.84;;;19.90;63.53
64908;BME280;51412;52.236;5.188;2022-07-10T08:07:38;102676.19;;;19.93;62.68
64908;BME280;51412;52.236;5.188;2022-07-10T08:10:08;102682.72;;;19.99;62.00
64908;BME280;51412;52.236;5.188;2022-07-10T08:12:35;102677.34;;;20.07;62.78
64908;BME280;51412;52.236;5.188;2022-07-10T08:15:02;102674.66;;;20.14;61.93
64908;BME280;51412;52.236;5.188;2022-07-10T08:17:29;102679.28;;;20.17;61.39
64908;BME280;51412;52.236;5.188;2022-07-10T08:19:56;102671.19;;;20.21;61.24
64908;BME280;51412;52.236;5.188;2022-07-10T08:22:22;102678.50;;;20.20;61.03
64908;BME280;51412;52.236;5.188;2022-07-10T08:24:49;102673.09;;;20.20;61.31
64908;BME280;51412;52.236;5.188;2022-07-10T08:27:16;102663.47;;;20.19;60.51
64908;BME280;51412;52.236;5.188;2022-07-10T08:29:43;102663.88;;;20.25;60.92
64908;BME280;51412;52.236;5.188;2022-07-10T08:32:10;102662.31;;;20.38;60.96
64908;BME280;51412;52.236;5.188;2022-07-10T08:34:36;102658.84;;;20.45;60.01
64908;BME280;51412;52.236;5.188;2022-07-10T08:37:03;102658.47;;;20.50;59.86
64908;BME280;51412;52.236;5.188;2022-07-10T08:39:30;102654.59;;;20.51;60.00
64908;BME280;51412;52.236;5.188;2022-07-10T08:41:56;102654.59;;;20.62;59.95
64908;BME280;51412;52.236;5.188;2022-07-10T08:44:24;102661.94;;;20.72;59.93
64908;BME280;51412;52.236;5.188;2022-07-10T08:46:51;102659.63;;;20.71;59.78
64908;BME280;51412;52.236;5.188;2022-07-10T08:49:20;102661.19;;;20.72;59.31
64908;BME280;51412;52.236;5.188;2022-07-10T08:51:52;102664.63;;;20.58;59.40
64908;BME280;51412;52.236;5.188;2022-07-10T08:54:20;102657.28;;;20.65;59.83
64908;BME280;51412;52.236;5.188;2022-07-10T08:56:48;102658.47;;;20.72;59.56
64908;BME280;51412;52.236;5.188;2022-07-10T08:59:15;102658.47;;;20.79;59.27
64908;BME280;51412;52.236;5.188;2022-07-10T09:01:44;102667.69;;;20.85;59.42
64908;BME280;51412;52.236;5.188;2022-07-10T09:04:16;102661.94;;;20.86;59.27
64908;BME280;51412;52.236;5.188;2022-07-10T09:06:44;102661.53;;;20.88;59.24
64908;BME280;51412;52.236;5.188;2022-07-10T09:09:10;102654.56;;;20.91;59.35
64908;BME280;51412;52.236;5.188;2022-07-10T09:11:38;102662.25;;;20.99;58.73
64908;BME280;51412;52.236;5.188;2022-07-10T09:14:07;102661.09;;;21.04;58.99
64908;BME280;51412;52.236;5.188;2022-07-10T09:16:35;102655.66;;;21.11;58.66
64908;BME280;51412;52.236;5.188;2022-07-10T09:19:17;102659.13;;;21.15;58.40
64908;BME280;51412;52.236;5.188;2022-07-10T09:21:45;102657.16;;;21.27;58.97
64908;BME280;51412;52.236;5.188;2022-07-10T09:24:12;102652.88;;;21.29;57.94
64908;BME280;51412;52.236;5.188;2022-07-10T09:26:40;102650.59;;;21.28;57.23
64908;BME280;51412;52.236;5.188;2022-07-10T09:29:08;102646.31;;;21.30;58.19
64908;BME280;51412;52.236;5.188;2022-07-10T09:31:51;102648.25;;;21.30;57.60
64908;BME280;51412;52.236;5.188;2022-07-10T09:34:35;102639.00;;;21.24;57.42
64908;BME280;51412;52.236;5.188;2022-07-10T09:37:17;102634.41;;;21.20;57.94
64908;BME280;51412;52.236;5.188;2022-07-10T09:39:51;102635.16;;;21.21;58.38
64908;BME280;51412;52.236;5.188;2022-07-10T09:42:28;102621.63;;;21.25;58.70
64908;BME280;51412;52.236;5.188;2022-07-10T09:45:14;102634.38;;;21.24;58.12
64908;BME280;51412;52.236;5.188;2022-07-10T09:47:42;102634.41;;;21.17;57.76
64908;BME280;51412;52.236;5.188;2022-07-10T09:50:21;102637.53;;;21.05;57.67
64908;BME280;51412;52.236;5.188;2022-07-10T09:52:50;102640.66;;;20.92;58.03
64908;BME280;51412;52.236;5.188;2022-07-10T09:55:19;102639.16;;;20.84;58.92
64908;BME280;51412;52.236;5.188;2022-07-10T09:57:51;102642.25;;;20.82;58.94
64908;BME280;51412;52.236;5.188;2022-07-10T10:00:21;102627.56;;;20.87;59.04
64908;BME280;51412;52.236;5.188;2022-07-10T10:02:52;102626.00;;;20.90;59.13
64908;BME280;51412;52.236;5.188;2022-07-10T10:05:26;102617.09;;;20.96;59.06
64908;BME280;51412;52.236;5.188;2022-07-10T10:07:53;102627.50;;;21.01;58.78
64908;BME280;51412;52.236;5.188;2022-07-10T10:10:20;102628.25;;;21.09;58.65
64908;BME280;51412;52.236;5.188;2022-07-10T10:12:52;102630.16;;;21.16;58.48
64908;BME280;51412;52.236;5.188;2022-07-10T10:15:21;102622.38;;;21.25;58.60
64908;BME280;51412;52.236;5.188;2022-07-10T10:17:50;102616.16;;;21.35;58.74
64908;BME280;51412;52.236;5.188;2022-07-10T10:20:18;102618.41;;;21.48;58.21
64908;BME280;51412;52.236;5.188;2022-07-10T10:23:05;102624.16;;;21.64;57.61
64908;BME280;51412;52.236;5.188;2022-07-10T10:25:37;102618.69;;;21.72;57.02
64908;BME280;51412;52.236;5.188;2022-07-10T10:28:05;102619.41;;;21.79;56.90
64908;BME280;51412;52.236;5.188;2022-07-10T10:30:32;102619.34;;;21.90;56.34
64908;BME280;51412;52.236;5.188;2022-07-10T10:33:02;102626.28;;;21.91;56.32
64908;BME280;51412;52.236;5.188;2022-07-10T10:35:42;102625.91;;;21.89;55.96
64908;BME280;51412;52.236;5.188;2022-07-10T10:38:10;102629.75;;;21.95;55.46
64908;BME280;51412;52.236;5.188;2022-07-10T10:40:37;102632.81;;;21.97;54.71
64908;BME280;51412;52.236;5.188;2022-07-10T10:43:17;102634.00;;;21.93;53.75
64908;BME280;51412;52.236;5.188;2022-07-10T10:45:45;102631.66;;;21.98;53.80
64908;BME280;51412;52.236;5.188;2022-07-10T10:48:13;102629.31;;;22.00;53.38
64908;BME280;51412;52.236;5.188;2022-07-10T10:50:41;102623.84;;;22.08;53.07
64908;BME280;51412;52.236;5.188;2022-07-10T10:53:17;102627.31;;;22.08;53.00
64908;BME280;51412;52.236;5.188;2022-07-10T10:56:22;102620.72;;;22.09;52.37
64908;BME280;51412;52.236;5.188;2022-07-10T10:58:49;102619.56;;;22.10;53.13
64908;BME280;51412;52.236;5.188;2022-07-10T11:01:29;102619.94;;;22.12;53.11
64908;BME280;51412;52.236;5.188;2022-07-10T11:04:12;102613.31;;;22.17;52.56
64908;BME280;51412;52.236;5.188;2022-07-10T11:06:40;102612.13;;;22.21;52.39
64908;BME280;51412;52.236;5.188;2022-07-10T11:09:24;102609.88;;;22.16;52.85
64908;BME280;51412;52.236;5.188;2022-07-10T11:11:58;102604.38;;;22.24;52.82
64908;BME280;51412;52.236;5.188;2022-07-10T11:14:26;102614.38;;;22.30;53.02
64908;BME280;51412;52.236;5.188;2022-07-10T11:16:54;102609.31;;;22.32;52.78
64908;BME280;51412;52.236;5.188;2022-07-10T11:19:24;102614.72;;;22.40;52.31
64908;BME280;51412;52.236;5.188;2022-07-10T11:21:59;102612.34;;;22.42;51.68
64908;BME280;51412;52.236;5.188;2022-07-10T11:24:40;102603.06;;;22.43;51.35
64908;BME280;51412;52.236;5.188;2022-07-10T11:27:26;102614.28;;;22.45;51.89
64908;BME280;51412;52.236;5.188;2022-07-10T11:29:58;102610.47;;;22.39;51.42
64908;BME280;51412;52.236;5.188;2022-07-10T11:32:25;102613.19;;;22.35;51.68
64908;BME280;51412;52.236;5.188;2022-07-10T11:34:51;102614.81;;;22.25;51.52
64908;BME280;51412;52.236;5.188;2022-07-10T11:37:18;102623.03;;;22.14;51.74
64908;BME280;51412;52.236;5.188;2022-07-10T11:39:46;102609.06;;;22.16;51.27
64908;BME280;51412;52.236;5.188;2022-07-10T11:42:13;102606.03;;;22.10;51.16
64908;BME280;51412;52.236;5.188;2022-07-10T11:44:39;102608.31;;;22.15;50.93
64908;BME280;51412;52.236;5.188;2022-07-10T11:47:06;102605.19;;;22.20;50.94
64908;BME280;51412;52.236;5.188;2022-07-10T11:49:33;102596.56;;;22.29;50.75
64908;BME280;51412;52.236;5.188;2022-07-10T11:52:02;102596.91;;;22.39;50.58
64908;BME280;51412;52.236;5.188;2022-07-10T11:54:29;102595.63;;;22.50;50.15
64908;BME280;51412;52.236;5.188;2022-07-10T11:57:04;102590.09;;;22.61;49.21
64908;BME280;51412;52.236;5.188;2022-07-10T11:59:31;102590.03;;;22.68;49.40
64908;BME280;51412;52.236;5.188;2022-07-10T12:01:57;102585.72;;;22.71;48.87
64908;BME280;51412;52.236;5.188;2022-07-10T12:04:24;102579.16;;;22.72;49.10
64908;BME280;51412;52.236;5.188;2022-07-10T12:06:53;102586.88;;;22.74;49.33
64908;BME280;51412;52.236;5.188;2022-07-10T12:09:22;102586.06;;;22.77;48.66
64908;BME280;51412;52.236;5.188;2022-07-10T12:11:59;102589.91;;;22.79;48.89
64908;BME280;51412;52.236;5.188;2022-07-10T12:14:27;102581.28;;;22.88;49.06
64908;BME280;51412;52.236;5.188;2022-07-10T12:16:54;102588.22;;;22.89;48.86
64908;BME280;51412;52.236;5.188;2022-07-10T12:19:23;102589.34;;;22.92;48.43
64908;BME280;51412;52.236;5.188;2022-07-10T12:21:50;102585.78;;;22.98;47.96
64908;BME280;51412;52.236;5.188;2022-07-10T12:24:18;102586.59;;;22.99;48.27
64908;BME280;51412;52.236;5.188;2022-07-10T12:26:46;102590.00;;;23.03;47.88
64908;BME280;51412;52.236;5.188;2022-07-10T12:29:20;102583.81;;;23.02;47.45
64908;BME280;51412;52.236;5.188;2022-07-10T12:31:48;102588.41;;;23.05;47.66
64908;BME280;51412;52.236;5.188;2022-07-10T12:34:16;102586.06;;;23.08;47.83
64908;BME280;51412;52.236;5.188;2022-07-10T12:36:44;102588.41;;;23.05;47.51
64908;BME280;51412;52.236;5.188;2022-07-10T12:39:12;102582.19;;;23.09;47.83
64908;BME280;51412;52.236;5.188;2022-07-10T12:41:57;102573.97;;;23.16;47.42
64908;BME280;51412;52.236;5.188;2022-07-10T12:44:33;102584.78;;;23.19;47.60
64908;BME280;51412;52.236;5.188;2022-07-10T12:47:01;102578.56;;;23.19;47.94
64908;BME280;51412;52.236;5.188;2022-07-10T12:49:28;102571.63;;;23.18;48.20
64908;BME280;51412;52.236;5.188;2022-07-10T12:51:54;102573.16;;;23.19;47.92
64908;BME280;51412;52.236;5.188;2022-07-10T12:54:31;102584.72;;;23.23;48.31
64908;BME280;51412;52.236;5.188;2022-07-10T12:56:58;102581.66;;;23.21;48.21